Hilger, Montana
Current Conditions -  °F | °C
As of 4:54 PM on Wednesday 22 Oct 2014 (Local Time) from KLWT Reporting Station
Clear Clear  
Wind Chill: 59°   Ceiling: Unl
Heat Index: 59°   Visibility: 10mi
Dew Point: 30°   Wind: 20mph
Humidity: 33%   Direction: 250°WSW
Pressure: 29.92"   Gusts: NA
Location:  47.25°N, 109.36°W
Report Text: KLWT 222254Z AUTO 25017KT 10SM CLR 15/M01 A2992 RMK AO2 SLP122 T01501011
Loading
Personal Weather Stations






























Interactive Weather Map
Tropical Storm Tracking
New forecast layout! Learn more

10-Day Weather Forecast

Advertisements
Track Severe Weather on mobile